sensor_id;sensor_type;location;lat;lon;timestamp;P1;durP1;ratioP1;P2;durP2;ratioP2
1204;SDS011;592;48.764;9.174;2023-07-24T00:00:30;11.17;;;6.03;;
1204;SDS011;592;48.764;9.174;2023-07-24T00:02:59;11.33;;;6.20;;
1204;SDS011;592;48.764;9.174;2023-07-24T00:05:25;11.27;;;6.30;;
1204;SDS011;592;48.764;9.174;2023-07-24T00:07:52;13.50;;;7.30;;
1204;SDS011;592;48.764;9.174;2023-07-24T00:10:19;9.80;;;5.97;;
1204;SDS011;592;48.764;9.174;2023-07-24T00:12:47;12.23;;;7.17;;
1204;SDS011;592;48.764;9.174;2023-07-24T00:15:13;11.97;;;6.10;;
1204;SDS011;592;48.764;9.174;2023-07-24T00:17:40;14.80;;;6.83;;
1204;SDS011;592;48.764;9.174;2023-07-24T00:20:07;11.80;;;6.37;;
1204;SDS011;592;48.764;9.174;2023-07-24T00:22:34;15.97;;;7.57;;
1204;SDS011;592;48.764;9.174;2023-07-24T00:25:01;14.10;;;6.90;;
1204;SDS011;592;48.764;9.174;2023-07-24T00:27:30;10.03;;;6.57;;
1204;SDS011;592;48.764;9.174;2023-07-24T00:29:58;11.07;;;6.70;;
1204;SDS011;592;48.764;9.174;2023-07-24T00:32:25;15.17;;;7.37;;
1204;SDS011;592;48.764;9.174;2023-07-24T00:34:53;13.77;;;6.57;;
1204;SDS011;592;48.764;9.174;2023-07-24T00:37:21;9.80;;;6.70;;
1204;SDS011;592;48.764;9.174;2023-07-24T00:39:48;11.10;;;6.00;;
1204;SDS011;592;48.764;9.174;2023-07-24T00:42:16;11.33;;;6.23;;
1204;SDS011;592;48.764;9.174;2023-07-24T00:44:43;11.57;;;6.77;;
1204;SDS011;592;48.764;9.174;2023-07-24T00:47:11;10.80;;;6.63;;
1204;SDS011;592;48.764;9.174;2023-07-24T00:49:38;11.50;;;7.07;;
1204;SDS011;592;48.764;9.174;2023-07-24T00:52:05;11.10;;;5.33;;
1204;SDS011;592;48.764;9.174;2023-07-24T00:54:33;12.17;;;6.37;;
1204;SDS011;592;48.764;9.174;2023-07-24T00:57:01;12.43;;;7.30;;
1204;SDS011;592;48.764;9.174;2023-07-24T00:59:29;11.50;;;6.47;;
1204;SDS011;592;48.764;9.174;2023-07-24T01:01:56;13.10;;;5.87;;
1204;SDS011;592;48.764;9.174;2023-07-24T01:04:24;13.40;;;7.60;;
1204;SDS011;592;48.764;9.174;2023-07-24T01:06:51;9.90;;;6.40;;
1204;SDS011;592;48.764;9.174;2023-07-24T01:09:18;16.10;;;7.40;;
1204;SDS011;592;48.764;9.174;2023-07-24T01:11:46;11.43;;;6.60;;
1204;SDS011;592;48.764;9.174;2023-07-24T01:14:18;11.90;;;6.73;;
1204;SDS011;592;48.764;9.174;2023-07-24T01:16:49;9.03;;;5.37;;
1204;SDS011;592;48.764;9.174;2023-07-24T01:19:20;11.03;;;6.90;;
1204;SDS011;592;48.764;9.174;2023-07-24T01:22:01;13.17;;;6.73;;
1204;SDS011;592;48.764;9.174;2023-07-24T01:24:36;8.90;;;6.00;;
1204;SDS011;592;48.764;9.174;2023-07-24T01:27:19;12.10;;;5.87;;
1204;SDS011;592;48.764;9.174;2023-07-24T01:29:46;13.30;;;6.43;;
1204;SDS011;592;48.764;9.174;2023-07-24T01:32:13;11.03;;;6.10;;
1204;SDS011;592;48.764;9.174;2023-07-24T01:34:40;9.90;;;5.43;;
1204;SDS011;592;48.764;9.174;2023-07-24T01:37:07;11.53;;;6.77;;
1204;SDS011;592;48.764;9.174;2023-07-24T01:39:35;10.70;;;6.73;;
1204;SDS011;592;48.764;9.174;2023-07-24T01:42:03;9.80;;;6.20;;
1204;SDS011;592;48.764;9.174;2023-07-24T01:44:32;9.23;;;6.20;;
1204;SDS011;592;48.764;9.174;2023-07-24T01:46:59;10.87;;;6.80;;
1204;SDS011;592;48.764;9.174;2023-07-24T01:49:27;10.40;;;6.60;;
1204;SDS011;592;48.764;9.174;2023-07-24T01:51:54;12.30;;;5.80;;
1204;SDS011;592;48.764;9.174;2023-07-24T01:54:21;11.83;;;7.70;;
1204;SDS011;592;48.764;9.174;2023-07-24T01:56:48;10.00;;;6.63;;
1204;SDS011;592;48.764;9.174;2023-07-24T01:59:15;11.00;;;6.70;;
1204;SDS011;592;48.764;9.174;2023-07-24T02:01:43;11.63;;;6.00;;
1204;SDS011;592;48.764;9.174;2023-07-24T02:04:09;12.20;;;6.20;;
1204;SDS011;592;48.764;9.174;2023-07-24T02:06:36;11.87;;;6.67;;
1204;SDS011;592;48.764;9.174;2023-07-24T02:09:03;8.90;;;5.33;;
1204;SDS011;592;48.764;9.174;2023-07-24T02:11:29;12.50;;;6.07;;
1204;SDS011;592;48.764;9.174;2023-07-24T02:13:56;11.30;;;6.27;;
1204;SDS011;592;48.764;9.174;2023-07-24T02:16:24;12.77;;;6.43;;
1204;SDS011;592;48.764;9.174;2023-07-24T02:18:52;12.10;;;6.47;;
1204;SDS011;592;48.764;9.174;2023-07-24T02:21:19;13.13;;;6.40;;
1204;SDS011;592;48.764;9.174;2023-07-24T02:23:45;11.03;;;6.40;;
1204;SDS011;592;48.764;9.174;2023-07-24T02:26:12;12.27;;;6.50;;
1204;SDS011;592;48.764;9.174;2023-07-24T02:28:39;11.07;;;6.67;;
1204;SDS011;592;48.764;9.174;2023-07-24T02:31:05;15.33;;;6.50;;
1204;SDS011;592;48.764;9.174;2023-07-24T02:33:32;12.23;;;6.67;;
1204;SDS011;592;48.764;9.174;2023-07-24T02:36:00;11.63;;;7.10;;
1204;SDS011;592;48.764;9.174;2023-07-24T02:38:27;13.10;;;6.83;;
1204;SDS011;592;48.764;9.174;2023-07-24T02:40:54;11.70;;;6.67;;
1204;SDS011;592;48.764;9.174;2023-07-24T02:43:21;11.90;;;6.63;;
1204;SDS011;592;48.764;9.174;2023-07-24T02:45:47;11.50;;;6.63;;
1204;SDS011;592;48.764;9.174;2023-07-24T02:48:14;11.97;;;6.63;;
1204;SDS011;592;48.764;9.174;2023-07-24T02:50:41;12.60;;;6.50;;
1204;SDS011;592;48.764;9.174;2023-07-24T02:53:09;10.37;;;6.00;;
1204;SDS011;592;48.764;9.174;2023-07-24T02:55:36;11.67;;;6.60;;
1204;SDS011;592;48.764;9.174;2023-07-24T02:58:03;11.20;;;6.50;;
1204;SDS011;592;48.764;9.174;2023-07-24T03:00:29;10.90;;;7.70;;
1204;SDS011;592;48.764;9.174;2023-07-24T03:02:57;13.90;;;7.10;;
1204;SDS011;592;48.764;9.174;2023-07-24T03:05:24;13.67;;;7.00;;
1204;SDS011;592;48.764;9.174;2023-07-24T03:07:51;9.80;;;6.23;;
1204;SDS011;592;48.764;9.174;2023-07-24T03:10:19;11.30;;;6.07;;
1204;SDS011;592;48.764;9.174;2023-07-24T03:12:46;11.17;;;6.30;;
1204;SDS011;592;48.764;9.174;2023-07-24T03:15:12;12.50;;;6.23;;
1204;SDS011;592;48.764;9.174;2023-07-24T03:17:39;13.63;;;6.50;;
1204;SDS011;592;48.764;9.174;2023-07-24T03:20:09;9.43;;;5.80;;
1204;SDS011;592;48.764;9.174;2023-07-24T03:22:40;9.20;;;6.03;;
1204;SDS011;592;48.764;9.174;2023-07-24T03:25:07;9.27;;;6.33;;
1204;SDS011;592;48.764;9.174;2023-07-24T03:27:35;10.13;;;5.90;;
1204;SDS011;592;48.764;9.174;2023-07-24T03:30:02;11.30;;;6.60;;
1204;SDS011;592;48.764;9.174;2023-07-24T03:32:30;13.50;;;7.17;;
1204;SDS011;592;48.764;9.174;2023-07-24T03:34:57;11.33;;;6.47;;
1204;SDS011;592;48.764;9.174;2023-07-24T03:37:23;11.93;;;6.20;;
1204;SDS011;592;48.764;9.174;2023-07-24T03:39:50;15.03;;;7.43;;
1204;SDS011;592;48.764;9.174;2023-07-24T03:42:24;11.50;;;5.83;;
1204;SDS011;592;48.764;9.174;2023-07-24T03:44:53;10.37;;;5.80;;
1204;SDS011;592;48.764;9.174;2023-07-24T03:47:21;10.00;;;5.43;;
1204;SDS011;592;48.764;9.174;2023-07-24T03:49:47;14.17;;;6.87;;
1204;SDS011;592;48.764;9.174;2023-07-24T03:52:14;11.83;;;6.90;;
1204;SDS011;592;48.764;9.174;2023-07-24T03:54:41;11.33;;;6.93;;
1204;SDS011;592;48.764;9.174;2023-07-24T03:57:08;12.53;;;6.77;;
1204;SDS011;592;48.764;9.174;2023-07-24T03:59:35;12.30;;;6.87;;
1204;SDS011;592;48.764;9.174;2023-07-24T04:02:03;11.60;;;6.90;;
1204;SDS011;592;48.764;9.174;2023-07-24T04:04:31;11.50;;;7.00;;
1204;SDS011;592;48.764;9.174;2023-07-24T04:06:58;10.93;;;6.10;;
1204;SDS011;592;48.764;9.174;2023-07-24T04:09:24;9.60;;;6.10;;
1204;SDS011;592;48.764;9.174;2023-07-24T04:11:51;12.37;;;5.63;;
1204;SDS011;592;48.764;9.174;2023-07-24T04:14:18;10.80;;;6.27;;
1204;SDS011;592;48.764;9.174;2023-07-24T04:16:45;13.10;;;6.43;;
1204;SDS011;592;48.764;9.174;2023-07-24T04:19:13;9.90;;;6.70;;
1204;SDS011;592;48.764;9.174;2023-07-24T04:21:39;11.77;;;6.93;;
1204;SDS011;592;48.764;9.174;2023-07-24T04:24:06;10.50;;;6.30;;
1204;SDS011;592;48.764;9.174;2023-07-24T04:26:33;11.53;;;7.00;;
1204;SDS011;592;48.764;9.174;2023-07-24T04:28:59;12.60;;;6.23;;
1204;SDS011;592;48.764;9.174;2023-07-24T04:31:26;14.23;;;6.83;;
1204;SDS011;592;48.764;9.174;2023-07-24T04:33:53;11.03;;;6.10;;
1204;SDS011;592;48.764;9.174;2023-07-24T04:36:21;12.17;;;6.93;;
1204;SDS011;592;48.764;9.174;2023-07-24T04:38:48;13.57;;;7.70;;
1204;SDS011;592;48.764;9.174;2023-07-24T04:41:14;13.53;;;6.90;;
1204;SDS011;592;48.764;9.174;2023-07-24T04:43:41;10.17;;;6.30;;
1204;SDS011;592;48.764;9.174;2023-07-24T04:46:08;10.10;;;5.70;;
1204;SDS011;592;48.764;9.174;2023-07-24T04:48:35;10.97;;;6.27;;
1204;SDS011;592;48.764;9.174;2023-07-24T04:51:02;15.00;;;7.00;;
1204;SDS011;592;48.764;9.174;2023-07-24T04:53:30;12.53;;;6.23;;
1204;SDS011;592;48.764;9.174;2023-07-24T04:55:57;10.13;;;6.33;;
1204;SDS011;592;48.764;9.174;2023-07-24T04:58:24;12.70;;;5.87;;
1204;SDS011;592;48.764;9.174;2023-07-24T05:00:50;9.63;;;5.83;;
1204;SDS011;592;48.764;9.174;2023-07-24T05:03:17;10.00;;;6.23;;
1204;SDS011;592;48.764;9.174;2023-07-24T05:05:47;8.30;;;6.20;;
1204;SDS011;592;48.764;9.174;2023-07-24T05:08:15;11.03;;;6.27;;
1204;SDS011;592;48.764;9.174;2023-07-24T05:10:43;10.27;;;6.00;;
1204;SDS011;592;48.764;9.174;2023-07-24T05:13:10;13.30;;;8.07;;
1204;SDS011;592;48.764;9.174;2023-07-24T05:15:37;10.37;;;7.17;;
1204;SDS011;592;48.764;9.174;2023-07-24T05:18:03;13.60;;;6.77;;
1204;SDS011;592;48.764;9.174;2023-07-24T05:20:30;11.90;;;6.87;;
1204;SDS011;592;48.764;9.174;2023-07-24T05:22:57;10.37;;;6.67;;
1204;SDS011;592;48.764;9.174;2023-07-24T05:25:24;12.40;;;6.20;;
1204;SDS011;592;48.764;9.174;2023-07-24T05:27:52;10.20;;;6.67;;
1204;SDS011;592;48.764;9.174;2023-07-24T05:30:19;10.50;;;6.23;;
1204;SDS011;592;48.764;9.174;2023-07-24T05:32:45;13.47;;;7.03;;
1204;SDS011;592;48.764;9.174;2023-07-24T05:35:12;10.67;;;6.23;;
1204;SDS011;592;48.764;9.174;2023-07-24T05:37:39;8.70;;;5.87;;
1204;SDS011;592;48.764;9.174;2023-07-24T05:40:06;13.20;;;6.60;;
1204;SDS011;592;48.764;9.174;2023-07-24T05:42:34;15.90;;;7.10;;
1204;SDS011;592;48.764;9.174;2023-07-24T05:45:08;12.40;;;6.43;;
1204;SDS011;592;48.764;9.174;2023-07-24T05:47:39;11.97;;;6.60;;
1204;SDS011;592;48.764;9.174;2023-07-24T05:50:06;11.60;;;6.23;;
1204;SDS011;592;48.764;9.174;2023-07-24T05:52:34;12.00;;;6.27;;
1204;SDS011;592;48.764;9.174;2023-07-24T05:55:00;12.57;;;6.00;;
1204;SDS011;592;48.764;9.174;2023-07-24T05:57:29;10.07;;;6.27;;
1204;SDS011;592;48.764;9.174;2023-07-24T05:59:55;11.80;;;7.17;;
1204;SDS011;592;48.764;9.174;2023-07-24T06:02:25;15.30;;;6.87;;
1204;SDS011;592;48.764;9.174;2023-07-24T06:04:52;12.43;;;7.10;;
1204;SDS011;592;48.764;9.174;2023-07-24T06:07:19;12.83;;;6.73;;
1204;SDS011;592;48.764;9.174;2023-07-24T06:09:47;12.70;;;6.73;;
1204;SDS011;592;48.764;9.174;2023-07-24T06:12:14;11.60;;;7.20;;
1204;SDS011;592;48.764;9.174;2023-07-24T06:14:41;11.27;;;6.87;;
1204;SDS011;592;48.764;9.174;2023-07-24T06:17:08;12.20;;;6.90;;
1204;SDS011;592;48.764;9.174;2023-07-24T06:19:36;13.70;;;7.00;;
1204;SDS011;592;48.764;9.174;2023-07-24T06:22:02;11.47;;;6.73;;
1204;SDS011;592;48.764;9.174;2023-07-24T06:24:29;10.53;;;6.50;;
1204;SDS011;592;48.764;9.174;2023-07-24T06:27:11;11.07;;;6.13;;
1204;SDS011;592;48.764;9.174;2023-07-24T06:29:37;13.70;;;7.30;;
1204;SDS011;592;48.764;9.174;2023-07-24T06:32:05;10.87;;;7.07;;
1204;SDS011;592;48.764;9.174;2023-07-24T06:34:33;11.27;;;7.40;;
1204;SDS011;592;48.764;9.174;2023-07-24T06:37:01;13.30;;;7.70;;
1204;SDS011;592;48.764;9.174;2023-07-24T06:39:28;12.47;;;6.90;;
1204;SDS011;592;48.764;9.174;2023-07-24T06:41:56;16.43;;;7.60;;
1204;SDS011;592;48.764;9.174;2023-07-24T06:44:22;13.17;;;6.97;;
1204;SDS011;592;48.764;9.174;2023-07-24T06:46:49;9.50;;;6.30;;
1204;SDS011;592;48.764;9.174;2023-07-24T06:49:16;15.30;;;7.90;;
1204;SDS011;592;48.764;9.174;2023-07-24T06:51:44;12.37;;;6.77;;
1204;SDS011;592;48.764;9.174;2023-07-24T06:54:11;11.87;;;6.87;;
1204;SDS011;592;48.764;9.174;2023-07-24T06:56:38;11.60;;;7.13;;
1204;SDS011;592;48.764;9.174;2023-07-24T06:59:04;14.40;;;7.50;;
1204;SDS011;592;48.764;9.174;2023-07-24T07:01:31;11.80;;;7.07;;
1204;SDS011;592;48.764;9.174;2023-07-24T07:03:58;14.70;;;7.40;;
1204;SDS011;592;48.764;9.174;2023-07-24T07:06:24;14.93;;;7.53;;
1204;SDS011;592;48.764;9.174;2023-07-24T07:08:52;12.13;;;7.10;;
1204;SDS011;592;48.764;9.174;2023-07-24T07:11:19;13.00;;;8.30;;
1204;SDS011;592;48.764;9.174;2023-07-24T07:13:46;18.77;;;9.80;;
1204;SDS011;592;48.764;9.174;2023-07-24T07:16:12;12.63;;;8.23;;
1204;SDS011;592;48.764;9.174;2023-07-24T07:18:43;15.83;;;7.30;;
1204;SDS011;592;48.764;9.174;2023-07-24T07:21:10;12.00;;;7.53;;
1204;SDS011;592;48.764;9.174;2023-07-24T07:23:37;12.70;;;8.10;;
1204;SDS011;592;48.764;9.174;2023-07-24T07:26:05;12.80;;;7.67;;
1204;SDS011;592;48.764;9.174;2023-07-24T07:28:32;15.50;;;7.70;;
1204;SDS011;592;48.764;9.174;2023-07-24T07:30:58;15.07;;;7.37;;
1204;SDS011;592;48.764;9.174;2023-07-24T07:33:25;16.03;;;7.30;;
1204;SDS011;592;48.764;9.174;2023-07-24T07:35:52;13.00;;;7.37;;
1204;SDS011;592;48.764;9.174;2023-07-24T07:38:19;11.97;;;6.97;;
1204;SDS011;592;48.764;9.174;2023-07-24T07:40:47;13.23;;;7.70;;
1204;SDS011;592;48.764;9.174;2023-07-24T07:43:15;22.43;;;8.43;;
1204;SDS011;592;48.764;9.174;2023-07-24T07:45:42;12.47;;;7.07;;
1204;SDS011;592;48.764;9.174;2023-07-24T07:48:09;12.53;;;7.13;;
1204;SDS011;592;48.764;9.174;2023-07-24T07:50:37;12.30;;;7.60;;
1204;SDS011;592;48.764;9.174;2023-07-24T07:53:03;13.50;;;7.70;;
1204;SDS011;592;48.764;9.174;2023-07-24T07:55:30;11.13;;;6.40;;
1204;SDS011;592;48.764;9.174;2023-07-24T07:57:57;13.67;;;7.27;;
1204;SDS011;592;48.764;9.174;2023-07-24T08:00:25;11.93;;;6.73;;
1204;SDS011;592;48.764;9.174;2023-07-24T08:02:52;13.20;;;7.30;;
1204;SDS011;592;48.764;9.174;2023-07-24T08:05:19;12.20;;;7.67;;
1204;SDS011;592;48.764;9.174;2023-07-24T08:07:45;11.50;;;7.40;;
1204;SDS011;592;48.764;9.174;2023-07-24T08:10:12;11.87;;;7.57;;
1204;SDS011;592;48.764;9.174;2023-07-24T08:12:40;10.70;;;7.10;;
1204;SDS011;592;48.764;9.174;2023-07-24T08:15:07;14.60;;;7.90;;
1204;SDS011;592;48.764;9.174;2023-07-24T08:17:36;14.03;;;7.77;;
1204;SDS011;592;48.764;9.174;2023-07-24T08:20:03;17.50;;;7.63;;
1204;SDS011;592;48.764;9.174;2023-07-24T08:22:30;33.40;;;13.10;;
1204;SDS011;592;48.764;9.174;2023-07-24T08:24:57;13.33;;;6.57;;
1204;SDS011;592;48.764;9.174;2023-07-24T08:27:24;18.17;;;8.90;;
1204;SDS011;592;48.764;9.174;2023-07-24T08:29:51;11.80;;;7.67;;
1204;SDS011;592;48.764;9.174;2023-07-24T08:32:18;14.50;;;9.03;;
1204;SDS011;592;48.764;9.174;2023-07-24T08:34:46;19.23;;;8.77;;
1204;SDS011;592;48.764;9.174;2023-07-24T08:37:13;13.30;;;6.83;;
1204;SDS011;592;48.764;9.174;2023-07-24T08:39:39;12.67;;;7.83;;
1204;SDS011;592;48.764;9.174;2023-07-24T08:42:09;10.03;;;6.83;;
1204;SDS011;592;48.764;9.174;2023-07-24T08:44:37;11.17;;;5.93;;
1204;SDS011;592;48.764;9.174;2023-07-24T08:47:05;12.53;;;6.50;;
1204;SDS011;592;48.764;9.174;2023-07-24T08:49:36;12.73;;;6.83;;
1204;SDS011;592;48.764;9.174;2023-07-24T08:52:06;9.43;;;6.33;;
1204;SDS011;592;48.764;9.174;2023-07-24T08:54:34;14.40;;;9.63;;
1204;SDS011;592;48.764;9.174;2023-07-24T08:57:02;12.40;;;7.10;;
1204;SDS011;592;48.764;9.174;2023-07-24T08:59:32;8.97;;;6.00;;
1204;SDS011;592;48.764;9.174;2023-07-24T09:01:58;11.80;;;7.47;;
1204;SDS011;592;48.764;9.174;2023-07-24T09:04:25;12.53;;;6.77;;
1204;SDS011;592;48.764;9.174;2023-07-24T09:06:52;18.63;;;7.00;;
1204;SDS011;592;48.764;9.174;2023-07-24T09:09:23;10.60;;;6.77;;
1204;SDS011;592;48.764;9.174;2023-07-24T09:11:55;12.10;;;7.90;;
1204;SDS011;592;48.764;9.174;2023-07-24T09:14:23;13.70;;;6.57;;
1204;SDS011;592;48.764;9.174;2023-07-24T09:17:01;11.80;;;6.83;;
1204;SDS011;592;48.764;9.174;2023-07-24T09:19:28;11.77;;;6.47;;
1204;SDS011;592;48.764;9.174;2023-07-24T09:22:06;9.40;;;5.77;;
1204;SDS011;592;48.764;9.174;2023-07-24T09:24:35;9.30;;;5.40;;
1204;SDS011;592;48.764;9.174;2023-07-24T09:27:04;10.93;;;7.07;;
1204;SDS011;592;48.764;9.174;2023-07-24T09:29:32;11.60;;;5.70;;
1204;SDS011;592;48.764;9.174;2023-07-24T09:31:59;8.90;;;5.23;;
1204;SDS011;592;48.764;9.174;2023-07-24T09:34:26;8.83;;;5.20;;
1204;SDS011;592;48.764;9.174;2023-07-24T09:36:53;10.47;;;5.50;;
1204;SDS011;592;48.764;9.174;2023-07-24T09:39:22;9.50;;;5.50;;
1204;SDS011;592;48.764;9.174;2023-07-24T09:41:50;8.43;;;4.97;;
1204;SDS011;592;48.764;9.174;2023-07-24T09:44:17;10.47;;;5.73;;
1204;SDS011;592;48.764;9.174;2023-07-24T09:46:46;12.20;;;5.17;;
1204;SDS011;592;48.764;9.174;2023-07-24T09:49:14;10.20;;;5.70;;
1204;SDS011;592;48.764;9.174;2023-07-24T09:51:40;11.03;;;5.23;;
1204;SDS011;592;48.764;9.174;2023-07-24T09:54:15;13.83;;;6.00;;
1204;SDS011;592;48.764;9.174;2023-07-24T09:56:46;15.37;;;6.87;;
1204;SDS011;592;48.764;9.174;2023-07-24T09:59:15;12.73;;;6.00;;
1204;SDS011;592;48.764;9.174;2023-07-24T10:01:42;11.90;;;6.17;;
1204;SDS011;592;48.764;9.174;2023-07-24T10:04:09;9.63;;;5.70;;
1204;SDS011;592;48.764;9.174;2023-07-24T10:06:36;8.93;;;5.27;;
1204;SDS011;592;48.764;9.174;2023-07-24T10:09:03;8.90;;;5.90;;
1204;SDS011;592;48.764;9.174;2023-07-24T10:11:31;11.70;;;6.10;;
1204;SDS011;592;48.764;9.174;2023-07-24T10:13:58;8.50;;;5.67;;
1204;SDS011;592;48.764;9.174;2023-07-24T10:16:27;9.80;;;6.23;;
1204;SDS011;592;48.764;9.174;2023-07-24T10:18:54;9.77;;;5.70;;
1204;SDS011;592;48.764;9.174;2023-07-24T10:21:25;10.07;;;5.33;;
1204;SDS011;592;48.764;9.174;2023-07-24T10:23:53;7.80;;;5.20;;
1204;SDS011;592;48.764;9.174;2023-07-24T10:26:24;10.20;;;5.83;;
1204;SDS011;592;48.764;9.174;2023-07-24T10:28:52;8.43;;;5.33;;
1204;SDS011;592;48.764;9.174;2023-07-24T10:31:20;9.10;;;5.80;;
1204;SDS011;592;48.764;9.174;2023-07-24T10:33:50;7.63;;;4.60;;
1204;SDS011;592;48.764;9.174;2023-07-24T10:36:18;8.20;;;4.63;;
1204;SDS011;592;48.764;9.174;2023-07-24T10:38:51;12.03;;;5.77;;
1204;SDS011;592;48.764;9.174;2023-07-24T10:41:19;10.40;;;6.47;;
1204;SDS011;592;48.764;9.174;2023-07-24T10:43:46;9.77;;;5.77;;
1204;SDS011;592;48.764;9.174;2023-07-24T10:46:15;11.60;;;5.83;;
1204;SDS011;592;48.764;9.174;2023-07-24T10:48:54;10.20;;;5.50;;
1204;SDS011;592;48.764;9.174;2023-07-24T10:51:28;9.03;;;5.97;;
1204;SDS011;592;48.764;9.174;2023-07-24T10:53:58;11.80;;;5.87;;
1204;SDS011;592;48.764;9.174;2023-07-24T10:56:25;11.87;;;6.00;;
1204;SDS011;592;48.764;9.174;2023-07-24T10:58:52;7.47;;;5.50;;
1204;SDS011;592;48.764;9.174;2023-07-24T11:01:19;8.73;;;5.67;;
1204;SDS011;592;48.764;9.174;2023-07-24T11:03:46;10.37;;;6.47;;
1204;SDS011;592;48.764;9.174;2023-07-24T11:06:16;8.80;;;5.80;;
1204;SDS011;592;48.764;9.174;2023-07-24T11:08:50;10.10;;;6.13;;
1204;SDS011;592;48.764;9.174;2023-07-24T11:11:18;11.53;;;5.70;;
1204;SDS011;592;48.764;9.174;2023-07-24T11:13:44;10.47;;;5.83;;
1204;SDS011;592;48.764;9.174;2023-07-24T11:16:11;9.87;;;5.67;;
1204;SDS011;592;48.764;9.174;2023-07-24T11:18:44;11.20;;;6.00;;
1204;SDS011;592;48.764;9.174;2023-07-24T11:21:12;8.90;;;6.03;;
1204;SDS011;592;48.764;9.174;2023-07-24T11:23:46;10.50;;;5.20;;
1204;SDS011;592;48.764;9.174;2023-07-24T11:26:13;14.50;;;6.53;;
1204;SDS011;592;48.764;9.174;2023-07-24T11:28:40;8.93;;;5.60;;
1204;SDS011;592;48.764;9.174;2023-07-24T11:31:07;9.67;;;5.53;;
1204;SDS011;592;48.764;9.174;2023-07-24T11:33:34;10.30;;;6.37;;
1204;SDS011;592;48.764;9.174;2023-07-24T11:36:02;9.13;;;5.80;;
1204;SDS011;592;48.764;9.174;2023-07-24T11:38:29;10.60;;;6.30;;
1204;SDS011;592;48.764;9.174;2023-07-24T11:40:57;10.30;;;5.80;;
1204;SDS011;592;48.764;9.174;2023-07-24T11:43:24;13.23;;;7.60;;
1204;SDS011;592;48.764;9.174;2023-07-24T11:45:51;9.50;;;5.60;;
1204;SDS011;592;48.764;9.174;2023-07-24T11:48:19;11.60;;;5.83;;
1204;SDS011;592;48.764;9.174;2023-07-24T11:50:47;9.87;;;6.00;;
1204;SDS011;592;48.764;9.174;2023-07-24T11:53:18;9.50;;;6.00;;
1204;SDS011;592;48.764;9.174;2023-07-24T11:55:47;8.73;;;6.10;;
1204;SDS011;592;48.764;9.174;2023-07-24T11:58:16;11.50;;;6.43;;
1204;SDS011;592;48.764;9.174;2023-07-24T12:00:43;13.73;;;6.50;;
1204;SDS011;592;48.764;9.174;2023-07-24T12:03:13;9.07;;;5.50;;
1204;SDS011;592;48.764;9.174;2023-07-24T12:05:41;8.33;;;5.90;;
1204;SDS011;592;48.764;9.174;2023-07-24T12:08:08;9.50;;;5.40;;
1204;SDS011;592;48.764;9.174;2023-07-24T12:10:36;10.67;;;6.03;;
1204;SDS011;592;48.764;9.174;2023-07-24T12:13:03;9.20;;;5.60;;
1204;SDS011;592;48.764;9.174;2023-07-24T12:15:32;12.43;;;6.17;;
1204;SDS011;592;48.764;9.174;2023-07-24T12:18:00;8.23;;;5.23;;
1204;SDS011;592;48.764;9.174;2023-07-24T12:20:27;8.40;;;6.07;;
1204;SDS011;592;48.764;9.174;2023-07-24T12:22:54;11.50;;;6.83;;
1204;SDS011;592;48.764;9.174;2023-07-24T12:25:21;10.53;;;6.03;;
1204;SDS011;592;48.764;9.174;2023-07-24T12:27:48;11.23;;;6.03;;
1204;SDS011;592;48.764;9.174;2023-07-24T12:30:15;11.10;;;6.60;;
1204;SDS011;592;48.764;9.174;2023-07-24T12:32:44;10.50;;;6.10;;
1204;SDS011;592;48.764;9.174;2023-07-24T12:35:12;10.93;;;6.37;;
1204;SDS011;592;48.764;9.174;2023-07-24T12:37:38;10.20;;;6.20;;
1204;SDS011;592;48.764;9.174;2023-07-24T12:40:06;9.57;;;5.57;;
1204;SDS011;592;48.764;9.174;2023-07-24T12:42:33;11.67;;;5.60;;
1204;SDS011;592;48.764;9.174;2023-07-24T12:45:00;10.20;;;6.03;;
1204;SDS011;592;48.764;9.174;2023-07-24T12:47:28;28.00;;;10.17;;
1204;SDS011;592;48.764;9.174;2023-07-24T12:49:57;11.20;;;5.73;;
1204;SDS011;592;48.764;9.174;2023-07-24T12:52:24;8.83;;;5.60;;
1204;SDS011;592;48.764;9.174;2023-07-24T12:54:53;11.53;;;6.47;;
1204;SDS011;592;48.764;9.174;2023-07-24T12:57:20;12.77;;;6.30;;
1204;SDS011;592;48.764;9.174;2023-07-24T12:59:46;35.10;;;10.40;;
1204;SDS011;592;48.764;9.174;2023-07-24T13:02:13;25.63;;;9.23;;
1204;SDS011;592;48.764;9.174;2023-07-24T13:04:40;9.40;;;5.97;;
1204;SDS011;592;48.764;9.174;2023-07-24T13:07:11;8.87;;;6.00;;
1204;SDS011;592;48.764;9.174;2023-07-24T13:09:38;12.73;;;7.00;;
1204;SDS011;592;48.764;9.174;2023-07-24T13:12:07;11.27;;;6.30;;
1204;SDS011;592;48.764;9.174;2023-07-24T13:14:36;8.67;;;5.03;;
1204;SDS011;592;48.764;9.174;2023-07-24T13:17:03;8.10;;;5.27;;
1204;SDS011;592;48.764;9.174;2023-07-24T13:19:30;10.30;;;6.07;;
1204;SDS011;592;48.764;9.174;2023-07-24T13:21:57;9.07;;;5.13;;
1204;SDS011;592;48.764;9.174;2023-07-24T13:24:25;12.13;;;6.10;;
1204;SDS011;592;48.764;9.174;2023-07-24T13:26:52;9.40;;;5.30;;
1204;SDS011;592;48.764;9.174;2023-07-24T13:29:19;8.67;;;5.10;;
1204;SDS011;592;48.764;9.174;2023-07-24T13:31:46;9.73;;;5.30;;
1204;SDS011;592;48.764;9.174;2023-07-24T13:34:12;8.03;;;4.97;;
1204;SDS011;592;48.764;9.174;2023-07-24T13:36:42;7.23;;;4.63;;
1204;SDS011;592;48.764;9.174;2023-07-24T13:39:11;8.17;;;4.83;;
1204;SDS011;592;48.764;9.174;2023-07-24T13:41:42;7.23;;;4.90;;
1204;SDS011;592;48.764;9.174;2023-07-24T13:44:09;8.40;;;5.43;;
1204;SDS011;592;48.764;9.174;2023-07-24T13:46:36;8.77;;;4.30;;
1204;SDS011;592;48.764;9.174;2023-07-24T13:49:05;8.03;;;4.30;;
1204;SDS011;592;48.764;9.174;2023-07-24T13:51:32;5.73;;;4.03;;
1204;SDS011;592;48.764;9.174;2023-07-24T13:53:59;6.63;;;4.67;;
1204;SDS011;592;48.764;9.174;2023-07-24T13:56:26;8.70;;;4.20;;
1204;SDS011;592;48.764;9.174;2023-07-24T13:58:55;10.03;;;5.10;;
1204;SDS011;592;48.764;9.174;2023-07-24T14:01:22;9.03;;;4.83;;
1204;SDS011;592;48.764;9.174;2023-07-24T14:03:49;7.83;;;4.50;;
1204;SDS011;592;48.764;9.174;2023-07-24T14:06:16;9.20;;;4.47;;
1204;SDS011;592;48.764;9.174;2023-07-24T14:08:42;8.50;;;4.60;;
1204;SDS011;592;48.764;9.174;2023-07-24T14:11:09;7.70;;;4.73;;
1204;SDS011;592;48.764;9.174;2023-07-24T14:13:36;7.80;;;4.27;;
1204;SDS011;592;48.764;9.174;2023-07-24T14:16:04;7.97;;;4.60;;
1204;SDS011;592;48.764;9.174;2023-07-24T14:18:31;6.73;;;4.00;;
1204;SDS011;592;48.764;9.174;2023-07-24T14:20:58;7.00;;;4.00;;
1204;SDS011;592;48.764;9.174;2023-07-24T14:23:25;6.97;;;4.20;;
1204;SDS011;592;48.764;9.174;2023-07-24T14:25:51;7.23;;;4.37;;
1204;SDS011;592;48.764;9.174;2023-07-24T14:28:18;6.87;;;3.90;;
1204;SDS011;592;48.764;9.174;2023-07-24T14:30:45;6.70;;;4.07;;
1204;SDS011;592;48.764;9.174;2023-07-24T14:33:13;8.53;;;5.03;;
1204;SDS011;592;48.764;9.174;2023-07-24T14:35:39;8.53;;;4.07;;
1204;SDS011;592;48.764;9.174;2023-07-24T14:38:06;9.17;;;4.77;;
1204;SDS011;592;48.764;9.174;2023-07-24T14:40:33;7.40;;;4.70;;
1204;SDS011;592;48.764;9.174;2023-07-24T14:43:00;6.73;;;4.07;;
1204;SDS011;592;48.764;9.174;2023-07-24T14:45:26;7.30;;;4.23;;
1204;SDS011;592;48.764;9.174;2023-07-24T14:47:53;6.17;;;3.90;;
1204;SDS011;592;48.764;9.174;2023-07-24T14:50:21;7.47;;;3.93;;
1204;SDS011;592;48.764;9.174;2023-07-24T14:52:48;7.83;;;4.23;;
1204;SDS011;592;48.764;9.174;2023-07-24T14:55:15;7.13;;;4.50;;
1204;SDS011;592;48.764;9.174;2023-07-24T14:57:42;7.57;;;4.10;;
1204;SDS011;592;48.764;9.174;2023-07-24T15:00:09;7.43;;;4.00;;
1204;SDS011;592;48.764;9.174;2023-07-24T15:02:37;7.53;;;4.27;;
1204;SDS011;592;48.764;9.174;2023-07-24T15:05:04;8.77;;;3.93;;
1204;SDS011;592;48.764;9.174;2023-07-24T15:07:32;6.57;;;4.10;;
1204;SDS011;592;48.764;9.174;2023-07-24T15:09:59;8.00;;;4.33;;
1204;SDS011;592;48.764;9.174;2023-07-24T15:12:25;11.60;;;4.23;;
1204;SDS011;592;48.764;9.174;2023-07-24T15:14:52;7.80;;;4.30;;
1204;SDS011;592;48.764;9.174;2023-07-24T15:17:19;6.50;;;3.63;;
1204;SDS011;592;48.764;9.174;2023-07-24T15:19:45;7.00;;;3.63;;
1204;SDS011;592;48.764;9.174;2023-07-24T15:22:12;6.40;;;3.50;;